Time;durP1;ratioP1;P1;durP2;ratioP2;P2;SDS_P1;SDS_P2;PMS_P1;PMS_P2;Temp;Humidity;BMP_temperature;BMP_pressure;BME280_temperature;BME280_humidity;BME280_pressure;Samples;Min_cycle;Max_cycle;Signal;HPM_P1;HPM_P2
2021/05/04 00:00:00;;;;;;;1.42;1.30;;;;;;;;;;5093696;28;20183;-90
2021/05/04 00:02:26;;;;;;;2.10;1.20;;;;;;;;;;5082964;28;20187;-87
2021/05/04 00:04:52;;;;;;;1.25;1.15;;;;;;;;;;5086112;28;20797;-87
2021/05/04 00:07:18;;;;;;;5.60;1.30;;;;;;;;;;5092218;28;20208;-87
2021/05/04 00:09:44;;;;;;;6.38;1.40;;;;;;;;;;5087523;28;20431;-83
2021/05/04 00:12:10;;;;;;;3.88;1.20;;;;;;;;;;5093967;28;20175;-81
2021/05/04 00:14:38;;;;;;;1.40;1.30;;;;;;;;;;5082014;28;20195;-86
2021/05/04 00:17:04;;;;;;;2.25;1.42;;;;;;;;;;5083008;28;20244;-87
2021/05/04 00:19:31;;;;;;;2.40;1.33;;;;;;;;;;5087503;28;20192;-87
2021/05/04 00:21:57;;;;;;;1.90;1.13;;;;;;;;;;5070487;28;20201;-87
2021/05/04 00:24:23;;;;;;;1.30;1.20;;;;;;;;;;5095134;28;20206;-87
2021/05/04 00:26:49;;;;;;;1.70;1.42;;;;;;;;;;5076159;28;20453;-84
2021/05/04 00:29:15;;;;;;;1.50;1.40;;;;;;;;;;5077511;28;20213;-86
2021/05/04 00:31:41;;;;;;;2.10;1.33;;;;;;;;;;5078676;28;20518;-87
2021/05/04 00:34:07;;;;;;;3.30;1.13;;;;;;;;;;5093114;28;20838;-91
2021/05/04 00:36:33;;;;;;;1.10;1.00;;;;;;;;;;5076177;28;20422;-87
2021/05/04 00:38:59;;;;;;;1.40;1.03;;;;;;;;;;5087394;28;20416;-87
2021/05/04 00:41:25;;;;;;;1.20;1.10;;;;;;;;;;5085494;28;20455;-86
2021/05/04 00:43:52;;;;;;;1.48;1.38;;;;;;;;;;5072974;28;20634;-85
2021/05/04 00:46:18;;;;;;;1.10;1.00;;;;;;;;;;5071326;28;20199;-84
2021/05/04 00:48:44;;;;;;;1.73;1.00;;;;;;;;;;5087631;28;20243;-86
2021/05/04 00:51:10;;;;;;;1.90;1.80;;;;;;;;;;5072822;28;20178;-87
2021/05/04 00:53:37;;;;;;;1.50;1.20;;;;;;;;;;5082131;28;20184;-89
2021/05/04 00:56:03;;;;;;;3.05;1.20;;;;;;;;;;5079026;28;20178;-86
2021/05/04 00:58:34;;;;;;;2.10;1.00;;;;;;;;;;5089241;28;20274;-85
2021/05/04 01:01:00;;;;;;;1.50;1.15;;;;;;;;;;5088766;28;20185;-85
2021/05/04 01:03:26;;;;;;;2.10;1.13;;;;;;;;;;5063095;28;20173;-90
2021/05/04 01:05:52;;;;;;;1.85;1.10;;;;;;;;;;5067141;28;20179;-91
2021/05/04 01:08:18;;;;;;;0.90;0.90;;;;;;;;;;5064480;28;20207;-83
2021/05/04 01:10:44;;;;;;;2.40;1.00;;;;;;;;;;5062431;28;20321;-87
2021/05/04 01:13:10;;;;;;;1.42;1.00;;;;;;;;;;5090369;28;20461;-85
2021/05/04 01:15:36;;;;;;;1.27;1.02;;;;;;;;;;5058991;28;20208;-87
2021/05/04 01:18:02;;;;;;;1.75;1.13;;;;;;;;;;5062279;28;20169;-90
2021/05/04 01:20:28;;;;;;;1.17;1.02;;;;;;;;;;5079574;28;20287;-86
2021/05/04 01:22:54;;;;;;;1.20;1.10;;;;;;;;;;5067290;28;20184;-88
2021/05/04 01:25:20;;;;;;;1.55;1.10;;;;;;;;;;5092092;28;20188;-86
2021/05/04 01:27:46;;;;;;;1.67;1.13;;;;;;;;;;5075275;28;20715;-87
2021/05/04 01:30:12;;;;;;;1.88;1.08;;;;;;;;;;5091589;28;20637;-86
2021/05/04 01:32:38;;;;;;;3.35;1.00;;;;;;;;;;5078240;28;20680;-86
2021/05/04 01:35:06;;;;;;;2.25;1.00;;;;;;;;;;5066084;28;20200;-86
2021/05/04 01:37:32;;;;;;;0.98;0.98;;;;;;;;;;5074506;28;20189;-87
2021/05/04 01:39:58;;;;;;;1.58;1.30;;;;;;;;;;5080921;28;20238;-84
2021/05/04 01:42:24;;;;;;;1.17;0.97;;;;;;;;;;5092693;28;20184;-85
2021/05/04 01:44:50;;;;;;;2.30;0.93;;;;;;;;;;5099709;28;21046;-85
2021/05/04 01:47:17;;;;;;;1.20;1.10;;;;;;;;;;5101448;28;20199;-86
2021/05/04 01:49:43;;;;;;;1.67;1.10;;;;;;;;;;5106491;28;20185;-88
2021/05/04 01:52:10;;;;;;;1.13;1.02;;;;;;;;;;5095235;28;20180;-83
2021/05/04 01:54:36;;;;;;;3.40;0.82;;;;;;;;;;5097286;28;20207;-88
2021/05/04 01:57:02;;;;;;;1.40;1.30;;;;;;;;;;5097356;28;20167;-90
2021/05/04 01:59:28;;;;;;;1.20;1.10;;;;;;;;;;5098863;28;20183;-85
2021/05/04 02:01:55;;;;;;;2.05;1.15;;;;;;;;;;5095631;28;20185;-85
2021/05/04 02:04:21;;;;;;;2.25;0.90;;;;;;;;;;5099675;28;20192;-87
2021/05/04 02:06:47;;;;;;;2.15;1.20;;;;;;;;;;5106105;28;20175;-84
2021/05/04 02:09:14;;;;;;;1.67;1.58;;;;;;;;;;5108281;28;20815;-86
2021/05/04 02:11:40;;;;;;;1.70;1.00;;;;;;;;;;5102614;28;20183;-89
2021/05/04 02:14:06;;;;;;;1.30;1.00;;;;;;;;;;5101955;28;20256;-86
2021/05/04 02:16:32;;;;;;;2.58;1.05;;;;;;;;;;5088892;28;20429;-82
2021/05/04 02:18:58;;;;;;;3.55;1.25;;;;;;;;;;5101246;28;20191;-91
2021/05/04 02:21:24;;;;;;;2.00;1.23;;;;;;;;;;5109428;28;20186;-90
2021/05/04 02:23:50;;;;;;;1.70;1.05;;;;;;;;;;5100106;28;20202;-90
2021/05/04 02:26:17;;;;;;;1.88;1.10;;;;;;;;;;5094018;28;20184;-86
2021/05/04 02:28:43;;;;;;;1.00;0.90;;;;;;;;;;5105051;28;20196;-91
2021/05/04 02:31:09;;;;;;;1.15;1.00;;;;;;;;;;5109566;28;20184;-84
2021/05/04 02:33:36;;;;;;;1.25;0.90;;;;;;;;;;5096465;28;20192;-88
2021/05/04 02:36:03;;;;;;;2.53;2.20;;;;;;;;;;5097707;28;20171;-87
2021/05/04 02:38:30;;;;;;;1.20;1.10;;;;;;;;;;5095716;28;20175;-84
2021/05/04 02:40:56;;;;;;;1.15;1.05;;;;;;;;;;5096463;28;20184;-86
2021/05/04 02:43:22;;;;;;;1.38;1.15;;;;;;;;;;5093364;28;20184;-82
2021/05/04 02:45:48;;;;;;;1.00;0.90;;;;;;;;;;5077910;28;20186;-84
2021/05/04 02:48:14;;;;;;;2.90;1.00;;;;;;;;;;5056710;28;20261;-82
2021/05/04 02:50:40;;;;;;;1.15;1.05;;;;;;;;;;5052094;28;20181;-82
2021/05/04 02:53:06;;;;;;;6.30;1.33;;;;;;;;;;5054685;28;20173;-81
2021/05/04 02:55:32;;;;;;;3.20;1.27;;;;;;;;;;5079839;28;20525;-87
2021/05/04 02:57:58;;;;;;;2.28;2.08;;;;;;;;;;5053880;28;20612;-88
2021/05/04 03:00:24;;;;;;;3.15;1.40;;;;;;;;;;5093561;28;20172;-87
2021/05/04 03:02:50;;;;;;;1.00;0.87;;;;;;;;;;5098241;28;20179;-85
2021/05/04 03:05:16;;;;;;;1.10;0.93;;;;;;;;;;5072377;28;20479;-90
2021/05/04 03:07:42;;;;;;;1.83;1.10;;;;;;;;;;5087582;28;20209;-86
2021/05/04 03:10:09;;;;;;;1.80;1.30;;;;;;;;;;5089567;28;20437;-90
2021/05/04 03:12:34;;;;;;;1.63;1.05;;;;;;;;;;5076169;28;20228;-84
2021/05/04 03:15:00;;;;;;;1.60;1.13;;;;;;;;;;5089641;28;20172;-84
2021/05/04 03:17:27;;;;;;;1.17;1.00;;;;;;;;;;5070261;28;20517;-87
2021/05/04 03:19:53;;;;;;;1.48;1.17;;;;;;;;;;5063205;28;20185;-89
2021/05/04 03:22:18;;;;;;;3.60;1.00;;;;;;;;;;5059304;28;20202;-82
2021/05/04 03:24:44;;;;;;;1.57;1.00;;;;;;;;;;5080924;28;20185;-87
2021/05/04 03:27:10;;;;;;;1.10;1.00;;;;;;;;;;5064893;28;20418;-90
2021/05/04 03:29:36;;;;;;;4.73;1.67;;;;;;;;;;5087282;28;20218;-87
2021/05/04 03:32:03;;;;;;;2.00;1.20;;;;;;;;;;5083668;28;20435;-86
2021/05/04 03:34:29;;;;;;;1.60;1.17;;;;;;;;;;5091795;28;20184;-84
2021/05/04 03:36:54;;;;;;;3.60;1.20;;;;;;;;;;5077959;28;20177;-89
2021/05/04 03:39:20;;;;;;;1.70;0.90;;;;;;;;;;5070072;28;20176;-86
2021/05/04 03:41:46;;;;;;;2.65;1.27;;;;;;;;;;5069554;28;20182;-86
2021/05/04 03:44:13;;;;;;;1.30;1.10;;;;;;;;;;5087282;28;20265;-88
2021/05/04 03:46:39;;;;;;;2.03;1.10;;;;;;;;;;5100405;28;20187;-89
2021/05/04 03:49:05;;;;;;;4.00;1.25;;;;;;;;;;5111706;28;20243;-89
2021/05/04 03:51:31;;;;;;;2.00;1.42;;;;;;;;;;5110454;28;20164;-88
2021/05/04 03:53:57;;;;;;;1.40;1.30;;;;;;;;;;5108079;28;20174;-88
2021/05/04 03:56:23;;;;;;;1.25;1.08;;;;;;;;;;5099829;28;20436;-87
2021/05/04 03:58:49;;;;;;;1.38;1.27;;;;;;;;;;5099511;28;20184;-86
2021/05/04 04:01:15;;;;;;;1.20;1.10;;;;;;;;;;5103321;28;20222;-88
2021/05/04 04:03:41;;;;;;;1.20;1.10;;;;;;;;;;5108935;28;20191;-89
2021/05/04 04:06:07;;;;;;;1.25;1.13;;;;;;;;;;5091790;28;20482;-91
2021/05/04 04:08:33;;;;;;;3.08;1.20;;;;;;;;;;5097647;28;20381;-89
2021/05/04 04:10:59;;;;;;;6.68;1.40;;;;;;;;;;5105889;28;20695;-86
2021/05/04 04:13:25;;;;;;;1.73;1.23;;;;;;;;;;5112631;28;20256;-89
2021/05/04 04:15:51;;;;;;;1.45;1.17;;;;;;;;;;5112313;28;20434;-92
2021/05/04 04:18:17;;;;;;;1.58;0.90;;;;;;;;;;5111149;28;20193;-86
2021/05/04 04:20:43;;;;;;;3.53;1.38;;;;;;;;;;5108212;28;20183;-89
2021/05/04 04:23:09;;;;;;;1.20;1.10;;;;;;;;;;5101418;28;20265;-91
2021/05/04 04:25:35;;;;;;;1.37;1.20;;;;;;;;;;5100270;28;20456;-91
2021/05/04 04:28:01;;;;;;;2.93;1.20;;;;;;;;;;5110723;28;20466;-86
2021/05/04 04:30:27;;;;;;;1.77;1.02;;;;;;;;;;5099876;28;20505;-86
2021/05/04 04:32:53;;;;;;;1.27;1.10;;;;;;;;;;5101419;28;20231;-84
2021/05/04 04:35:19;;;;;;;1.52;1.17;;;;;;;;;;5093806;28;20199;-87
2021/05/04 04:37:45;;;;;;;1.50;1.40;;;;;;;;;;5090505;28;20195;-85
2021/05/04 04:40:11;;;;;;;1.30;1.20;;;;;;;;;;5098996;28;20190;-87
2021/05/04 04:42:37;;;;;;;1.25;1.15;;;;;;;;;;5097928;28;20251;-86
2021/05/04 04:45:04;;;;;;;3.05;1.20;;;;;;;;;;5102420;28;20324;-82
2021/05/04 04:47:30;;;;;;;2.55;1.60;;;;;;;;;;5093860;28;20247;-89
2021/05/04 04:49:56;;;;;;;2.28;1.33;;;;;;;;;;5089059;28;20181;-89
2021/05/04 04:52:22;;;;;;;1.60;1.10;;;;;;;;;;5089268;28;20627;-87
2021/05/04 04:54:48;;;;;;;3.03;1.30;;;;;;;;;;5096835;28;20188;-86
2021/05/04 04:57:14;;;;;;;2.28;1.55;;;;;;;;;;5089462;28;20180;-87
2021/05/04 04:59:40;;;;;;;2.00;1.30;;;;;;;;;;5104124;28;20216;-89
2021/05/04 05:02:06;;;;;;;1.97;1.13;;;;;;;;;;5107407;28;20610;-88
2021/05/04 05:04:32;;;;;;;4.00;1.65;;;;;;;;;;5089621;28;20453;-87
2021/05/04 05:07:01;;;;;;;3.30;1.40;;;;;;;;;;5096737;28;20188;-87
2021/05/04 05:09:27;;;;;;;1.50;1.40;;;;;;;;;;5101767;28;20491;-85
2021/05/04 05:11:53;;;;;;;1.60;1.50;;;;;;;;;;5091157;28;20185;-86
2021/05/04 05:14:19;;;;;;;1.70;1.60;;;;;;;;;;5090138;28;20203;-84
2021/05/04 05:16:45;;;;;;;1.63;1.40;;;;;;;;;;5095792;28;20468;-86
2021/05/04 05:19:11;;;;;;;1.40;1.30;;;;;;;;;;5102746;28;20183;-85
2021/05/04 05:21:37;;;;;;;3.33;1.57;;;;;;;;;;5089420;28;20445;-86
2021/05/04 05:24:04;;;;;;;8.05;1.63;;;;;;;;;;5098227;28;20433;-85
2021/05/04 05:26:30;;;;;;;5.72;2.45;;;;;;;;;;5099266;28;20247;-85
2021/05/04 05:28:56;;;;;;;4.40;1.90;;;;;;;;;;5094819;28;20193;-85
2021/05/04 05:31:25;;;;;;;3.25;1.70;;;;;;;;;;5094072;28;20183;-82
2021/05/04 05:33:53;;;;;;;2.25;1.27;;;;;;;;;;5091608;28;20246;-81
2021/05/04 05:36:20;;;;;;;3.05;1.48;;;;;;;;;;5088328;28;20165;-85
2021/05/04 05:38:45;;;;;;;2.97;1.33;;;;;;;;;;5095229;28;20169;-82
2021/05/04 05:41:12;;;;;;;1.93;1.70;;;;;;;;;;5098815;28;20195;-82
2021/05/04 05:43:38;;;;;;;2.00;1.58;;;;;;;;;;5091311;28;20825;-83
2021/05/04 05:46:04;;;;;;;1.13;1.02;;;;;;;;;;5064481;28;20274;-84
2021/05/04 05:48:30;;;;;;;1.60;1.50;;;;;;;;;;5087319;28;20195;-82
2021/05/04 05:50:56;;;;;;;2.97;1.98;;;;;;;;;;5056382;28;20259;-84
2021/05/04 05:53:22;;;;;;;1.63;1.40;;;;;;;;;;5059850;28;20231;-80
2021/05/04 05:55:48;;;;;;;2.47;1.25;;;;;;;;;;5073489;28;20211;-81
2021/05/04 05:58:14;;;;;;;1.58;1.23;;;;;;;;;;5073990;28;20251;-82
2021/05/04 06:00:41;;;;;;;2.70;1.30;;;;;;;;;;5052624;28;20189;-81
2021/05/04 06:03:07;;;;;;;2.10;1.10;;;;;;;;;;5059644;28;20641;-81
2021/05/04 06:05:33;;;;;;;1.58;1.35;;;;;;;;;;5078317;28;20209;-83
2021/05/04 06:08:01;;;;;;;3.22;1.35;;;;;;;;;;5070704;28;20673;-82
2021/05/04 06:10:27;;;;;;;1.88;1.38;;;;;;;;;;5068626;28;20177;-83
2021/05/04 06:13:00;;;;;;;4.15;2.00;;;;;;;;;;5093939;28;20193;-81
2021/05/04 06:15:26;;;;;;;1.50;1.35;;;;;;;;;;5073555;28;20188;-81
2021/05/04 06:17:53;;;;;;;1.27;1.10;;;;;;;;;;5049881;28;20184;-81
2021/05/04 06:20:19;;;;;;;3.72;1.38;;;;;;;;;;5073702;28;20183;-81
2021/05/04 06:22:45;;;;;;;1.10;1.00;;;;;;;;;;5068918;28;20187;-83
2021/05/04 06:25:11;;;;;;;0.90;0.90;;;;;;;;;;5088105;28;20263;-79
2021/05/04 06:27:37;;;;;;;1.17;1.08;;;;;;;;;;5075747;28;20189;-80
2021/05/04 06:30:04;;;;;;;1.35;1.10;;;;;;;;;;5076163;28;20183;-80
2021/05/04 06:32:30;;;;;;;1.13;1.02;;;;;;;;;;5074268;28;20187;-80
2021/05/04 06:34:56;;;;;;;0.80;0.80;;;;;;;;;;5074896;28;20555;-82
2021/05/04 06:37:22;;;;;;;2.17;1.08;;;;;;;;;;5079068;28;20260;-82
2021/05/04 06:39:48;;;;;;;3.13;1.27;;;;;;;;;;5074461;28;20210;-80
2021/05/04 06:42:14;;;;;;;2.03;1.08;;;;;;;;;;5078436;28;20430;-80
2021/05/04 06:44:40;;;;;;;1.58;1.48;;;;;;;;;;5080172;28;20215;-82
2021/05/04 06:47:06;;;;;;;1.10;0.83;;;;;;;;;;5093233;28;20176;-82
2021/05/04 06:49:32;;;;;;;3.42;1.58;;;;;;;;;;5098086;28;20483;-83
2021/05/04 06:51:58;;;;;;;0.95;0.85;;;;;;;;;;5089859;28;20182;-79
2021/05/04 06:54:24;;;;;;;1.10;0.73;;;;;;;;;;5090876;28;20195;-81
2021/05/04 06:56:51;;;;;;;1.85;1.00;;;;;;;;;;5104593;28;20408;-79
2021/05/04 06:59:17;;;;;;;2.00;0.90;;;;;;;;;;5097470;28;20207;-79
2021/05/04 07:01:43;;;;;;;4.20;1.10;;;;;;;;;;5092701;28;20184;-80
2021/05/04 07:04:09;;;;;;;0.80;0.80;;;;;;;;;;5097691;28;20448;-80
2021/05/04 07:06:35;;;;;;;1.00;0.90;;;;;;;;;;5106731;28;20416;-78
2021/05/04 07:09:01;;;;;;;1.98;1.00;;;;;;;;;;5109974;28;20198;-83
2021/05/04 07:11:27;;;;;;;2.30;1.00;;;;;;;;;;5109040;28;20182;-79
2021/05/04 07:13:53;;;;;;;2.08;0.73;;;;;;;;;;5096506;28;20191;-84
2021/05/04 07:16:19;;;;;;;0.87;0.80;;;;;;;;;;5100657;28;20180;-81
2021/05/04 07:18:45;;;;;;;2.03;0.95;;;;;;;;;;5094372;28;20434;-79
2021/05/04 07:21:11;;;;;;;0.80;0.80;;;;;;;;;;5091022;28;20219;-79
2021/05/04 07:23:38;;;;;;;1.38;1.00;;;;;;;;;;5095546;28;20591;-82
2021/05/04 07:26:04;;;;;;;4.88;0.95;;;;;;;;;;5094570;28;20191;-80
2021/05/04 07:28:31;;;;;;;0.95;0.80;;;;;;;;;;5105530;28;20204;-79
2021/05/04 07:30:57;;;;;;;2.20;0.82;;;;;;;;;;5093601;28;20184;-80
2021/05/04 07:33:23;;;;;;;2.53;1.33;;;;;;;;;;5108424;28;20729;-79
2021/05/04 07:35:49;;;;;;;1.33;1.10;;;;;;;;;;5089908;28;20549;-85
2021/05/04 07:38:16;;;;;;;1.33;1.00;;;;;;;;;;5094481;28;20188;-79
2021/05/04 07:40:42;;;;;;;1.90;0.88;;;;;;;;;;5104601;28;20189;-79
2021/05/04 07:43:08;;;;;;;2.08;1.05;;;;;;;;;;5094650;28;20192;-77
2021/05/04 07:45:34;;;;;;;2.15;0.95;;;;;;;;;;5084899;28;20188;-78
2021/05/04 07:48:03;;;;;;;1.92;1.13;;;;;;;;;;5079073;28;20215;-83
2021/05/04 07:50:29;;;;;;;3.05;0.80;;;;;;;;;;5074415;28;20180;-78
2021/05/04 07:52:55;;;;;;;2.40;0.93;;;;;;;;;;5074811;28;20177;-79
2021/05/04 07:55:21;;;;;;;5.45;1.27;;;;;;;;;;5074855;28;20192;-84
2021/05/04 07:57:47;;;;;;;1.58;1.20;;;;;;;;;;5082201;28;20207;-79
2021/05/04 08:00:14;;;;;;;3.83;1.00;;;;;;;;;;5072327;28;20181;-84
2021/05/04 08:02:40;;;;;;;1.58;0.95;;;;;;;;;;5075446;28;20458;-79
2021/05/04 08:05:07;;;;;;;1.48;1.10;;;;;;;;;;5057796;28;20188;-83
2021/05/04 08:07:34;;;;;;;3.67;1.27;;;;;;;;;;5089346;28;20214;-78
2021/05/04 08:10:00;;;;;;;1.52;0.88;;;;;;;;;;5080492;28;20188;-78
2021/05/04 08:12:26;;;;;;;1.95;0.85;;;;;;;;;;5092433;28;20180;-79
2021/05/04 08:14:53;;;;;;;1.23;1.00;;;;;;;;;;5070034;28;20207;-79
2021/05/04 08:17:22;;;;;;;1.17;0.98;;;;;;;;;;5067354;28;20548;-84
2021/05/04 08:19:48;;;;;;;3.72;1.20;;;;;;;;;;5069717;28;20297;-80
2021/05/04 08:22:14;;;;;;;4.72;1.15;;;;;;;;;;5077755;28;20181;-81
2021/05/04 08:24:41;;;;;;;5.22;1.60;;;;;;;;;;5084109;28;20710;-78
2021/05/04 08:27:07;;;;;;;6.45;2.00;;;;;;;;;;5081257;28;20173;-79
2021/05/04 08:29:33;;;;;;;5.50;1.73;;;;;;;;;;5076504;28;20200;-79
2021/05/04 08:32:02;;;;;;;4.75;1.60;;;;;;;;;;5076390;28;20173;-79
2021/05/04 08:34:29;;;;;;;6.78;1.90;;;;;;;;;;5078804;28;20207;-79
2021/05/04 08:36:56;;;;;;;8.30;2.17;;;;;;;;;;5078154;28;20179;-83
2021/05/04 08:39:21;;;;;;;3.70;2.63;;;;;;;;;;5090224;28;20179;-77
2021/05/04 08:41:47;;;;;;;4.90;2.15;;;;;;;;;;5058904;28;20177;-78
2021/05/04 08:44:23;;;;;;;5.07;2.30;;;;;;;;;;5069892;28;20229;-85
2021/05/04 08:46:49;;;;;;;3.47;1.40;;;;;;;;;;5069887;28;20438;-79
2021/05/04 08:49:19;;;;;;;4.20;1.48;;;;;;;;;;5052224;28;20204;-84
2021/05/04 08:51:46;;;;;;;7.35;2.05;;;;;;;;;;5052170;28;20184;-84
2021/05/04 08:54:12;;;;;;;5.88;1.83;;;;;;;;;;5071485;28;20233;-80
2021/05/04 08:56:40;;;;;;;3.70;1.60;;;;;;;;;;5079830;28;20202;-79
2021/05/04 08:59:07;;;;;;;3.58;2.33;;;;;;;;;;5075638;28;20448;-79
2021/05/04 09:01:33;;;;;;;3.83;2.05;;;;;;;;;;5089254;28;20187;-83
2021/05/04 09:04:07;;;;;;;7.45;1.60;;;;;;;;;;5060868;28;20193;-80
2021/05/04 09:06:36;;;;;;;5.55;1.30;;;;;;;;;;5066608;28;20170;-78
2021/05/04 09:09:08;;;;;;;4.97;1.13;;;;;;;;;;5078396;28;20198;-90
2021/05/04 09:17:26;;;;;;;1.58;0.90;;;;;;;;;;5077782;28;20559;-80
2021/05/04 09:22:39;;;;;;;3.17;1.58;;;;;;;;;;5073647;28;20189;-82
2021/05/04 09:25:24;;;;;;;2.90;1.45;;;;;;;;;;5067333;28;20173;-80
2021/05/04 09:28:00;;;;;;;2.70;1.48;;;;;;;;;;5069318;28;20208;-81
2021/05/04 09:30:26;;;;;;;2.25;1.08;;;;;;;;;;5070446;28;20180;-82
2021/05/04 09:32:52;;;;;;;2.50;1.40;;;;;;;;;;5066840;28;20171;-80
2021/05/04 09:35:28;;;;;;;2.78;1.30;;;;;;;;;;5080864;28;20434;-79
2021/05/04 09:38:02;;;;;;;1.92;0.93;;;;;;;;;;5082087;28;20253;-82
2021/05/04 09:40:29;;;;;;;6.85;2.25;;;;;;;;;;5068834;28;20189;-80
2021/05/04 09:43:01;;;;;;;5.78;1.60;;;;;;;;;;5076743;28;20189;-82
2021/05/04 09:45:27;;;;;;;2.10;1.50;;;;;;;;;;5095195;28;20269;-81
2021/05/04 09:48:10;;;;;;;2.67;1.00;;;;;;;;;;5096784;28;20684;-84
2021/05/04 09:50:47;;;;;;;5.35;1.92;;;;;;;;;;5094155;28;20528;-82
2021/05/04 09:53:14;;;;;;;3.85;1.48;;;;;;;;;;5098163;28;20263;-80
2021/05/04 09:55:57;;;;;;;4.95;2.00;;;;;;;;;;5106461;28;20355;-84
2021/05/04 09:58:30;;;;;;;2.65;1.20;;;;;;;;;;5089448;28;20188;-87
2021/05/04 10:00:56;;;;;;;3.28;1.75;;;;;;;;;;5108204;28;20184;-80
2021/05/04 10:03:22;;;;;;;4.95;1.50;;;;;;;;;;5098869;28;20179;-80
2021/05/04 10:05:50;;;;;;;4.95;1.30;;;;;;;;;;5098261;28;20163;-82
2021/05/04 10:08:16;;;;;;;5.90;2.30;;;;;;;;;;5097380;28;20208;-81
2021/05/04 10:10:42;;;;;;;7.72;2.45;;;;;;;;;;5108279;28;20248;-88
2021/05/04 10:13:09;;;;;;;5.78;2.67;;;;;;;;;;5106138;28;20672;-81
2021/05/04 10:15:35;;;;;;;11.02;2.13;;;;;;;;;;5096018;28;20201;-82
2021/05/04 10:18:01;;;;;;;4.55;1.67;;;;;;;;;;5096241;28;20176;-87
2021/05/04 10:20:28;;;;;;;3.80;2.35;;;;;;;;;;5094390;28;20184;-78
2021/05/04 10:22:55;;;;;;;5.50;4.10;;;;;;;;;;5099013;28;20702;-83
2021/05/04 10:25:22;;;;;;;4.90;1.58;;;;;;;;;;5096566;28;20188;-82
2021/05/04 10:27:51;;;;;;;4.03;1.70;;;;;;;;;;5110360;28;20250;-86
2021/05/04 10:30:18;;;;;;;7.80;2.05;;;;;;;;;;5108227;28;20632;-84
2021/05/04 10:32:52;;;;;;;2.80;1.27;;;;;;;;;;5087191;28;20177;-84
2021/05/04 10:35:33;;;;;;;5.35;2.22;;;;;;;;;;5093870;28;20180;-83
2021/05/04 10:38:06;;;;;;;2.08;1.33;;;;;;;;;;5098542;28;20186;-83
2021/05/04 10:40:35;;;;;;;4.15;1.60;;;;;;;;;;5108442;28;20183;-79
2021/05/04 10:43:03;;;;;;;8.30;2.40;;;;;;;;;;5089072;28;20180;-81
2021/05/04 10:45:41;;;;;;;1.85;1.15;;;;;;;;;;5078101;28;20243;-81
2021/05/04 10:48:07;;;;;;;3.88;2.17;;;;;;;;;;5082751;28;20553;-79
2021/05/04 10:50:54;;;;;;;6.80;2.17;;;;;;;;;;5063587;28;20173;-81
2021/05/04 10:53:21;;;;;;;5.55;2.35;;;;;;;;;;5061686;28;20258;-85
2021/05/04 10:55:53;;;;;;;7.75;1.85;;;;;;;;;;5054668;28;20192;-85
2021/05/04 10:58:20;;;;;;;5.13;1.85;;;;;;;;;;5063110;28;20184;-83
2021/05/04 11:00:53;;;;;;;7.28;1.75;;;;;;;;;;5048504;28;20250;-82
2021/05/04 11:03:31;;;;;;;4.40;1.90;;;;;;;;;;5065893;28;20212;-81
2021/05/04 11:06:01;;;;;;;5.10;1.50;;;;;;;;;;5071392;28;20188;-82
2021/05/04 11:08:42;;;;;;;4.07;1.75;;;;;;;;;;5047891;28;20210;-81
2021/05/04 11:11:26;;;;;;;4.68;2.08;;;;;;;;;;5049715;28;20206;-78
2021/05/04 11:13:59;;;;;;;4.40;2.53;;;;;;;;;;5045083;28;20181;-80
2021/05/04 11:16:47;;;;;;;5.32;1.60;;;;;;;;;;5047505;28;20191;-85
2021/05/04 11:19:29;;;;;;;6.05;1.85;;;;;;;;;;5049544;28;20181;-82
2021/05/04 11:21:58;;;;;;;8.45;1.92;;;;;;;;;;5069946;28;20185;-81
2021/05/04 11:24:36;;;;;;;5.50;2.88;;;;;;;;;;5074932;28;20223;-81
2021/05/04 11:27:02;;;;;;;3.92;1.80;;;;;;;;;;5080373;28;20177;-78
2021/05/04 11:29:31;;;;;;;5.30;1.67;;;;;;;;;;5075021;28;20203;-80
2021/05/04 11:32:09;;;;;;;8.57;2.35;;;;;;;;;;5059470;28;20438;-84
2021/05/04 11:34:39;;;;;;;4.25;2.03;;;;;;;;;;5080553;28;20188;-85
2021/05/04 11:37:10;;;;;;;9.00;1.77;;;;;;;;;;5069018;28;20205;-79
2021/05/04 11:39:37;;;;;;;6.13;2.88;;;;;;;;;;5068741;28;20188;-79
2021/05/04 11:42:03;;;;;;;7.38;2.08;;;;;;;;;;5071309;28;20184;-78
2021/05/04 11:44:33;;;;;;;6.18;1.95;;;;;;;;;;5083821;28;20251;-84
2021/05/04 11:47:19;;;;;;;6.18;1.73;;;;;;;;;;5076012;28;20212;-80
2021/05/04 11:49:45;;;;;;;3.92;1.80;;;;;;;;;;5059154;28;20295;-84
2021/05/04 11:52:13;;;;;;;4.53;1.30;;;;;;;;;;5085956;28;20192;-79
2021/05/04 11:54:39;;;;;;;5.47;1.77;;;;;;;;;;5067849;28;20185;-78
2021/05/04 11:57:05;;;;;;;5.05;2.10;;;;;;;;;;5089069;28;20255;-82
2021/05/04 11:59:31;;;;;;;5.18;2.10;;;;;;;;;;5083361;28;20213;-86
2021/05/04 12:01:58;;;;;;;8.20;2.13;;;;;;;;;;5065251;28;20209;-83
2021/05/04 12:04:42;;;;;;;8.20;2.28;;;;;;;;;;5051499;28;20690;-83
2021/05/04 12:07:08;;;;;;;11.32;2.30;;;;;;;;;;5058291;28;20180;-85
2021/05/04 12:09:35;;;;;;;7.87;3.03;;;;;;;;;;5059156;28;20243;-85
2021/05/04 12:12:11;;;;;;;5.55;2.25;;;;;;;;;;5063511;28;20423;-83
2021/05/04 12:14:57;;;;;;;6.55;1.90;;;;;;;;;;5076281;28;20181;-86
2021/05/04 12:17:26;;;;;;;8.82;2.35;;;;;;;;;;5056630;28;20164;-87
2021/05/04 12:19:52;;;;;;;5.28;2.10;;;;;;;;;;5055128;28;20197;-85
2021/05/04 12:22:18;;;;;;;3.25;1.50;;;;;;;;;;5077706;28;20268;-85
2021/05/04 12:24:45;;;;;;;4.28;1.60;;;;;;;;;;5072923;28;20186;-86
2021/05/04 12:27:11;;;;;;;4.32;1.52;;;;;;;;;;5075411;28;20188;-88
2021/05/04 12:29:37;;;;;;;4.40;1.90;;;;;;;;;;5064372;28;20202;-86
2021/05/04 12:32:03;;;;;;;4.00;1.95;;;;;;;;;;5060286;28;20227;-87
2021/05/04 12:34:33;;;;;;;6.80;1.75;;;;;;;;;;5082072;28;20190;-86
2021/05/04 12:37:00;;;;;;;3.63;1.38;;;;;;;;;;5005911;28;20222;-86
2021/05/04 12:39:32;;;;;;;5.03;2.63;;;;;;;;;;4975430;28;20189;-85
2021/05/04 12:42:00;;;;;;;7.47;1.80;;;;;;;;;;5000738;28;20196;-81
2021/05/04 12:44:27;;;;;;;3.92;1.60;;;;;;;;;;5005597;28;20229;-81
2021/05/04 12:46:54;;;;;;;10.43;2.10;;;;;;;;;;5020589;28;20185;-87
2021/05/04 12:49:21;;;;;;;6.45;1.48;;;;;;;;;;5008597;28;20216;-84
2021/05/04 12:51:53;;;;;;;9.40;2.20;;;;;;;;;;5012043;28;20214;-83
2021/05/04 12:54:21;;;;;;;4.95;2.05;;;;;;;;;;5017424;28;20261;-91
2021/05/04 12:56:54;;;;;;;8.73;1.83;;;;;;;;;;5021337;28;20179;-88
2021/05/04 12:59:30;;;;;;;5.18;1.88;;;;;;;;;;5012817;28;20183;-82
2021/05/04 13:01:58;;;;;;;4.57;1.50;;;;;;;;;;5019369;28;20441;-85
2021/05/04 13:07:08;;;;;;;8.55;1.92;;;;;;;;;;5018340;28;20196;-86
2021/05/04 13:15:33;;;;;;;10.60;2.15;;;;;;;;;;5023555;28;20194;-83
2021/05/04 13:31:34;;;;;;;5.45;1.90;;;;;;;;;;5013115;28;20641;-84
2021/05/04 13:34:00;;;;;;;5.18;1.65;;;;;;;;;;5012767;28;20248;-85
2021/05/04 13:36:26;;;;;;;4.80;2.05;;;;;;;;;;5013353;28;20175;-87
2021/05/04 13:39:10;;;;;;;6.82;2.10;;;;;;;;;;5016401;28;20269;-84
2021/05/04 13:49:50;;;;;;;6.85;2.30;;;;;;;;;;5011931;28;20274;-88
2021/05/04 13:52:16;;;;;;;3.87;1.63;;;;;;;;;;5018373;28;20250;-82
2021/05/04 13:54:42;;;;;;;7.53;2.47;;;;;;;;;;5021713;28;20435;-88
2021/05/04 13:57:08;;;;;;;4.35;1.73;;;;;;;;;;5017975;28;20201;-82
2021/05/04 13:59:33;;;;;;;3.27;1.40;;;;;;;;;;5021137;28;20220;-84
2021/05/04 14:02:11;;;;;;;3.40;1.53;;;;;;;;;;5018306;28;20438;-82
2021/05/04 14:04:46;;;;;;;3.17;1.40;;;;;;;;;;4988685;28;20640;-89
2021/05/04 14:15:51;;;;;;;4.72;1.52;;;;;;;;;;5036295;28;20194;-88
2021/05/04 14:26:24;;;;;;;2.45;1.30;;;;;;;;;;4980085;28;20203;-81
2021/05/04 14:28:50;;;;;;;4.65;1.55;;;;;;;;;;4981660;28;20214;-82
2021/05/04 14:31:16;;;;;;;2.75;1.30;;;;;;;;;;4960835;28;20188;-86
2021/05/04 14:33:42;;;;;;;4.47;1.70;;;;;;;;;;4980057;28;20175;-83
2021/05/04 14:36:50;;;;;;;2.30;1.10;;;;;;;;;;4981640;28;20203;-82
2021/05/04 14:44:34;;;;;;;3.22;1.23;;;;;;;;;;4979154;28;20296;-85
2021/05/04 15:03:17;;;;;;;7.35;1.90;;;;;;;;;;4936723;29;20185;-81
2021/05/04 15:05:44;;;;;;;6.82;1.52;;;;;;;;;;4944031;29;20197;-81
2021/05/04 15:08:10;;;;;;;4.72;1.73;;;;;;;;;;4944606;29;20239;-81
2021/05/04 15:10:36;;;;;;;3.90;1.83;;;;;;;;;;4942424;29;20261;-81
2021/05/04 15:13:07;;;;;;;3.85;1.85;;;;;;;;;;4940974;29;20444;-84
2021/05/04 15:23:43;;;;;;;8.13;2.00;;;;;;;;;;4943812;29;20224;-82
2021/05/04 15:26:09;;;;;;;4.13;1.60;;;;;;;;;;4957627;29;20204;-82
2021/05/04 15:28:35;;;;;;;3.63;1.20;;;;;;;;;;4959736;28;20483;-88
2021/05/04 15:31:01;;;;;;;4.38;1.83;;;;;;;;;;5042194;28;20457;-84
2021/05/04 15:33:31;;;;;;;6.43;2.05;;;;;;;;;;5056693;28;20220;-81
2021/05/04 15:35:57;;;;;;;3.58;1.73;;;;;;;;;;5038938;28;20200;-81
2021/05/04 15:38:23;;;;;;;7.50;1.40;;;;;;;;;;5038616;28;20236;-79
2021/05/04 15:40:49;;;;;;;4.70;1.48;;;;;;;;;;5035543;28;20190;-80
2021/05/04 15:43:15;;;;;;;5.53;1.58;;;;;;;;;;5035900;28;20189;-80
2021/05/04 16:02:29;;;;;;;5.50;1.50;;;;;;;;;;5021624;28;20776;-82
2021/05/04 16:07:23;;;;;;;1.67;0.98;;;;;;;;;;5021172;28;20208;-82
2021/05/04 16:09:50;;;;;;;3.70;1.20;;;;;;;;;;5018068;28;20205;-84
2021/05/04 16:12:16;;;;;;;3.35;1.40;;;;;;;;;;5003979;28;20709;-78
2021/05/04 16:14:42;;;;;;;3.20;1.40;;;;;;;;;;5021351;28;20246;-82
2021/05/04 16:17:07;;;;;;;3.97;1.52;;;;;;;;;;5021311;28;20448;-81
2021/05/04 16:19:39;;;;;;;7.03;2.30;;;;;;;;;;5004585;28;20220;-79
2021/05/04 16:22:08;;;;;;;6.60;1.60;;;;;;;;;;5004620;28;20186;-81
2021/05/04 16:24:45;;;;;;;3.88;1.92;;;;;;;;;;5024321;28;20185;-81
2021/05/04 16:27:23;;;;;;;4.60;1.90;;;;;;;;;;5045931;28;20666;-87
2021/05/04 16:32:15;;;;;;;5.05;1.60;;;;;;;;;;5034764;28;20186;-83